sensor_id;sensor_type;location;lat;lon;timestamp;P1;durP1;ratioP1;P2;durP2;ratioP2
10465;SDS011;5280;42.600;23.556;2023-05-07T00:00:40;4.20;;;3.10;;
10465;SDS011;5280;42.600;23.556;2023-05-07T00:03:07;4.37;;;2.80;;
10465;SDS011;5280;42.600;23.556;2023-05-07T00:05:34;3.73;;;3.30;;
10465;SDS011;5280;42.600;23.556;2023-05-07T00:08:01;3.70;;;3.30;;
10465;SDS011;5280;42.600;23.556;2023-05-07T00:10:29;4.80;;;3.30;;
10465;SDS011;5280;42.600;23.556;2023-05-07T00:12:56;4.73;;;3.13;;
10465;SDS011;5280;42.600;23.556;2023-05-07T00:15:22;3.37;;;3.07;;
10465;SDS011;5280;42.600;23.556;2023-05-07T00:17:49;3.80;;;3.27;;
10465;SDS011;5280;42.600;23.556;2023-05-07T00:20:16;6.30;;;3.47;;
10465;SDS011;5280;42.600;23.556;2023-05-07T00:22:42;3.30;;;3.03;;
10465;SDS011;5280;42.600;23.556;2023-05-07T00:25:09;3.87;;;3.10;;
10465;SDS011;5280;42.600;23.556;2023-05-07T00:27:37;4.70;;;3.13;;
10465;SDS011;5280;42.600;23.556;2023-05-07T00:30:07;4.67;;;3.43;;
10465;SDS011;5280;42.600;23.556;2023-05-07T00:32:35;3.30;;;3.10;;
10465;SDS011;5280;42.600;23.556;2023-05-07T00:35:01;4.33;;;3.47;;
10465;SDS011;5280;42.600;23.556;2023-05-07T00:37:28;3.77;;;3.37;;
10465;SDS011;5280;42.600;23.556;2023-05-07T00:39:55;4.47;;;3.20;;
10465;SDS011;5280;42.600;23.556;2023-05-07T00:42:22;4.00;;;3.33;;
10465;SDS011;5280;42.600;23.556;2023-05-07T00:44:51;3.43;;;3.13;;
10465;SDS011;5280;42.600;23.556;2023-05-07T00:47:18;3.50;;;3.20;;
10465;SDS011;5280;42.600;23.556;2023-05-07T00:49:45;4.20;;;2.97;;
10465;SDS011;5280;42.600;23.556;2023-05-07T00:52:13;3.63;;;3.20;;
10465;SDS011;5280;42.600;23.556;2023-05-07T00:54:41;3.57;;;3.27;;
10465;SDS011;5280;42.600;23.556;2023-05-07T00:57:09;9.70;;;3.37;;
10465;SDS011;5280;42.600;23.556;2023-05-07T00:59:39;4.23;;;3.53;;
10465;SDS011;5280;42.600;23.556;2023-05-07T01:02:07;3.40;;;3.17;;
10465;SDS011;5280;42.600;23.556;2023-05-07T01:04:34;5.10;;;3.50;;
10465;SDS011;5280;42.600;23.556;2023-05-07T01:07:04;3.77;;;3.17;;
10465;SDS011;5280;42.600;23.556;2023-05-07T01:09:31;4.27;;;3.63;;
10465;SDS011;5280;42.600;23.556;2023-05-07T01:12:00;3.63;;;3.33;;
10465;SDS011;5280;42.600;23.556;2023-05-07T01:14:27;6.10;;;3.70;;
10465;SDS011;5280;42.600;23.556;2023-05-07T01:16:54;4.23;;;3.87;;
10465;SDS011;5280;42.600;23.556;2023-05-07T01:19:23;5.03;;;3.40;;
10465;SDS011;5280;42.600;23.556;2023-05-07T01:21:49;4.03;;;3.53;;
10465;SDS011;5280;42.600;23.556;2023-05-07T01:24:19;3.77;;;3.47;;
10465;SDS011;5280;42.600;23.556;2023-05-07T01:26:45;4.93;;;4.47;;
10465;SDS011;5280;42.600;23.556;2023-05-07T01:29:12;6.10;;;5.50;;
10465;SDS011;5280;42.600;23.556;2023-05-07T01:31:39;7.77;;;5.87;;
10465;SDS011;5280;42.600;23.556;2023-05-07T01:34:07;8.50;;;7.70;;
10465;SDS011;5280;42.600;23.556;2023-05-07T01:36:36;9.93;;;9.03;;
10465;SDS011;5280;42.600;23.556;2023-05-07T01:39:05;9.07;;;8.23;;
10465;SDS011;5280;42.600;23.556;2023-05-07T01:41:34;8.03;;;7.13;;
10465;SDS011;5280;42.600;23.556;2023-05-07T01:44:01;11.23;;;7.80;;
10465;SDS011;5280;42.600;23.556;2023-05-07T01:46:29;9.87;;;8.83;;
10465;SDS011;5280;42.600;23.556;2023-05-07T01:48:57;10.37;;;8.27;;
10465;SDS011;5280;42.600;23.556;2023-05-07T01:51:24;9.30;;;8.50;;
10465;SDS011;5280;42.600;23.556;2023-05-07T01:53:52;9.17;;;8.37;;
10465;SDS011;5280;42.600;23.556;2023-05-07T01:56:19;9.77;;;8.53;;
10465;SDS011;5280;42.600;23.556;2023-05-07T01:58:47;8.77;;;8.07;;
10465;SDS011;5280;42.600;23.556;2023-05-07T02:01:14;9.53;;;8.53;;
10465;SDS011;5280;42.600;23.556;2023-05-07T02:03:41;9.57;;;8.60;;
10465;SDS011;5280;42.600;23.556;2023-05-07T02:06:08;11.20;;;9.70;;
10465;SDS011;5280;42.600;23.556;2023-05-07T02:08:34;11.57;;;10.47;;
10465;SDS011;5280;42.600;23.556;2023-05-07T02:11:01;10.77;;;9.77;;
10465;SDS011;5280;42.600;23.556;2023-05-07T02:13:29;11.53;;;10.33;;
10465;SDS011;5280;42.600;23.556;2023-05-07T02:15:59;11.07;;;10.03;;
10465;SDS011;5280;42.600;23.556;2023-05-07T02:18:26;14.90;;;11.60;;
10465;SDS011;5280;42.600;23.556;2023-05-07T02:20:52;13.50;;;12.30;;
10465;SDS011;5280;42.600;23.556;2023-05-07T02:23:19;13.07;;;11.77;;
10465;SDS011;5280;42.600;23.556;2023-05-07T02:25:46;14.13;;;12.67;;
10465;SDS011;5280;42.600;23.556;2023-05-07T02:28:13;12.57;;;11.43;;
10465;SDS011;5280;42.600;23.556;2023-05-07T02:30:40;13.30;;;12.03;;
10465;SDS011;5280;42.600;23.556;2023-05-07T02:33:08;13.80;;;12.50;;
10465;SDS011;5280;42.600;23.556;2023-05-07T02:35:37;15.70;;;13.00;;
10465;SDS011;5280;42.600;23.556;2023-05-07T02:38:04;16.47;;;14.83;;
10465;SDS011;5280;42.600;23.556;2023-05-07T02:40:31;17.73;;;15.87;;
10465;SDS011;5280;42.600;23.556;2023-05-07T02:42:58;16.60;;;15.00;;
10465;SDS011;5280;42.600;23.556;2023-05-07T02:45:25;17.07;;;15.30;;
10465;SDS011;5280;42.600;23.556;2023-05-07T02:47:52;16.77;;;15.07;;
10465;SDS011;5280;42.600;23.556;2023-05-07T02:50:21;18.83;;;15.67;;
10465;SDS011;5280;42.600;23.556;2023-05-07T02:52:48;17.53;;;15.83;;
10465;SDS011;5280;42.600;23.556;2023-05-07T02:55:15;16.43;;;14.83;;
10465;SDS011;5280;42.600;23.556;2023-05-07T02:57:42;16.30;;;14.70;;
10465;SDS011;5280;42.600;23.556;2023-05-07T03:00:12;16.87;;;15.17;;
10465;SDS011;5280;42.600;23.556;2023-05-07T03:02:40;18.33;;;16.00;;
10465;SDS011;5280;42.600;23.556;2023-05-07T03:05:07;17.03;;;15.13;;
10465;SDS011;5280;42.600;23.556;2023-05-07T03:07:36;17.80;;;15.77;;
10465;SDS011;5280;42.600;23.556;2023-05-07T03:10:03;18.93;;;17.00;;
10465;SDS011;5280;42.600;23.556;2023-05-07T03:12:31;17.83;;;16.03;;
10465;SDS011;5280;42.600;23.556;2023-05-07T03:14:58;16.77;;;15.13;;
10465;SDS011;5280;42.600;23.556;2023-05-07T03:17:24;17.33;;;15.63;;
10465;SDS011;5280;42.600;23.556;2023-05-07T03:19:51;20.80;;;16.57;;
10465;SDS011;5280;42.600;23.556;2023-05-07T03:22:18;16.53;;;14.77;;
10465;SDS011;5280;42.600;23.556;2023-05-07T03:24:47;15.83;;;13.40;;
10465;SDS011;5280;42.600;23.556;2023-05-07T03:27:13;16.80;;;15.13;;
10465;SDS011;5280;42.600;23.556;2023-05-07T03:29:40;16.00;;;14.30;;
10465;SDS011;5280;42.600;23.556;2023-05-07T03:32:07;18.30;;;14.73;;
10465;SDS011;5280;42.600;23.556;2023-05-07T03:34:33;14.93;;;13.50;;
10465;SDS011;5280;42.600;23.556;2023-05-07T03:37:02;15.87;;;13.67;;
10465;SDS011;5280;42.600;23.556;2023-05-07T03:39:29;15.37;;;13.87;;
10465;SDS011;5280;42.600;23.556;2023-05-07T03:41:58;14.87;;;13.37;;
10465;SDS011;5280;42.600;23.556;2023-05-07T03:44:25;16.03;;;12.13;;
10465;SDS011;5280;42.600;23.556;2023-05-07T03:46:58;14.07;;;12.63;;
10465;SDS011;5280;42.600;23.556;2023-05-07T03:49:25;14.43;;;13.10;;
10465;SDS011;5280;42.600;23.556;2023-05-07T03:51:51;14.47;;;12.87;;
10465;SDS011;5280;42.600;23.556;2023-05-07T03:54:18;13.47;;;12.17;;
10465;SDS011;5280;42.600;23.556;2023-05-07T03:56:45;14.33;;;12.90;;
10465;SDS011;5280;42.600;23.556;2023-05-07T03:59:13;13.07;;;11.77;;
10465;SDS011;5280;42.600;23.556;2023-05-07T04:01:40;12.80;;;11.53;;
10465;SDS011;5280;42.600;23.556;2023-05-07T04:04:06;13.17;;;11.67;;
10465;SDS011;5280;42.600;23.556;2023-05-07T04:06:33;12.47;;;11.30;;
10465;SDS011;5280;42.600;23.556;2023-05-07T04:09:00;13.57;;;12.17;;
10465;SDS011;5280;42.600;23.556;2023-05-07T04:11:27;13.60;;;12.27;;
10465;SDS011;5280;42.600;23.556;2023-05-07T04:13:53;13.23;;;11.93;;
10465;SDS011;5280;42.600;23.556;2023-05-07T04:16:22;13.17;;;11.77;;
10465;SDS011;5280;42.600;23.556;2023-05-07T04:18:49;12.40;;;11.20;;
10465;SDS011;5280;42.600;23.556;2023-05-07T04:21:16;13.10;;;11.70;;
10465;SDS011;5280;42.600;23.556;2023-05-07T04:23:43;13.83;;;12.43;;
10465;SDS011;5280;42.600;23.556;2023-05-07T04:26:14;14.53;;;13.03;;
10465;SDS011;5280;42.600;23.556;2023-05-07T04:28:41;14.60;;;13.20;;
10465;SDS011;5280;42.600;23.556;2023-05-07T04:31:08;15.93;;;14.07;;
10465;SDS011;5280;42.600;23.556;2023-05-07T04:33:36;14.37;;;12.80;;
10465;SDS011;5280;42.600;23.556;2023-05-07T04:36:03;15.97;;;14.27;;
10465;SDS011;5280;42.600;23.556;2023-05-07T04:38:30;15.87;;;13.80;;
10465;SDS011;5280;42.600;23.556;2023-05-07T04:41:02;16.23;;;14.47;;
10465;SDS011;5280;42.600;23.556;2023-05-07T04:43:30;13.73;;;12.33;;
10465;SDS011;5280;42.600;23.556;2023-05-07T04:45:57;13.37;;;11.97;;
10465;SDS011;5280;42.600;23.556;2023-05-07T04:48:24;13.67;;;11.70;;
10465;SDS011;5280;42.600;23.556;2023-05-07T04:50:52;12.27;;;10.83;;
10465;SDS011;5280;42.600;23.556;2023-05-07T04:53:19;11.60;;;10.43;;
10465;SDS011;5280;42.600;23.556;2023-05-07T04:55:47;11.37;;;10.13;;
10465;SDS011;5280;42.600;23.556;2023-05-07T04:58:14;11.50;;;10.33;;
10465;SDS011;5280;42.600;23.556;2023-05-07T05:00:41;11.07;;;10.07;;
10465;SDS011;5280;42.600;23.556;2023-05-07T05:03:08;12.40;;;11.30;;
10465;SDS011;5280;42.600;23.556;2023-05-07T05:05:36;11.83;;;10.73;;
10465;SDS011;5280;42.600;23.556;2023-05-07T05:08:04;14.17;;;11.67;;
10465;SDS011;5280;42.600;23.556;2023-05-07T05:10:31;13.13;;;11.83;;
10465;SDS011;5280;42.600;23.556;2023-05-07T05:12:58;12.67;;;11.33;;
10465;SDS011;5280;42.600;23.556;2023-05-07T05:15:24;11.60;;;10.50;;
10465;SDS011;5280;42.600;23.556;2023-05-07T05:17:51;12.50;;;10.97;;
10465;SDS011;5280;42.600;23.556;2023-05-07T05:20:18;11.03;;;10.03;;
10465;SDS011;5280;42.600;23.556;2023-05-07T05:22:46;10.77;;;9.77;;
10465;SDS011;5280;42.600;23.556;2023-05-07T05:25:14;11.73;;;10.63;;
10465;SDS011;5280;42.600;23.556;2023-05-07T05:27:41;12.77;;;11.23;;
10465;SDS011;5280;42.600;23.556;2023-05-07T05:30:08;11.30;;;10.20;;
10465;SDS011;5280;42.600;23.556;2023-05-07T05:32:35;10.73;;;9.80;;
10465;SDS011;5280;42.600;23.556;2023-05-07T05:35:02;9.27;;;8.27;;
10465;SDS011;5280;42.600;23.556;2023-05-07T05:37:29;9.93;;;9.03;;
10465;SDS011;5280;42.600;23.556;2023-05-07T05:39:56;10.70;;;9.67;;
10465;SDS011;5280;42.600;23.556;2023-05-07T05:42:25;12.83;;;10.87;;
10465;SDS011;5280;42.600;23.556;2023-05-07T05:44:51;11.83;;;10.10;;
10465;SDS011;5280;42.600;23.556;2023-05-07T05:47:18;10.43;;;9.43;;
10465;SDS011;5280;42.600;23.556;2023-05-07T05:49:45;11.10;;;10.10;;
10465;SDS011;5280;42.600;23.556;2023-05-07T05:52:12;11.00;;;9.33;;
10465;SDS011;5280;42.600;23.556;2023-05-07T05:54:40;10.30;;;9.17;;
10465;SDS011;5280;42.600;23.556;2023-05-07T05:57:06;10.73;;;9.60;;
10465;SDS011;5280;42.600;23.556;2023-05-07T05:59:37;10.57;;;9.43;;
10465;SDS011;5280;42.600;23.556;2023-05-07T06:02:04;11.40;;;10.30;;
10465;SDS011;5280;42.600;23.556;2023-05-07T06:04:36;11.37;;;9.73;;
10465;SDS011;5280;42.600;23.556;2023-05-07T06:07:03;10.53;;;9.47;;
10465;SDS011;5280;42.600;23.556;2023-05-07T06:09:30;9.90;;;9.00;;
10465;SDS011;5280;42.600;23.556;2023-05-07T06:11:57;10.53;;;9.53;;
10465;SDS011;5280;42.600;23.556;2023-05-07T06:14:23;10.30;;;8.70;;
10465;SDS011;5280;42.600;23.556;2023-05-07T06:16:54;9.53;;;8.57;;
10465;SDS011;5280;42.600;23.556;2023-05-07T06:19:21;9.33;;;8.43;;
10465;SDS011;5280;42.600;23.556;2023-05-07T06:21:49;8.40;;;7.70;;
10465;SDS011;5280;42.600;23.556;2023-05-07T06:24:16;9.30;;;8.43;;
10465;SDS011;5280;42.600;23.556;2023-05-07T06:26:43;9.37;;;8.47;;
10465;SDS011;5280;42.600;23.556;2023-05-07T06:29:10;9.23;;;8.43;;
10465;SDS011;5280;42.600;23.556;2023-05-07T06:31:36;8.93;;;8.10;;
10465;SDS011;5280;42.600;23.556;2023-05-07T06:34:05;10.10;;;9.10;;
10465;SDS011;5280;42.600;23.556;2023-05-07T06:36:32;8.87;;;8.07;;
10465;SDS011;5280;42.600;23.556;2023-05-07T06:38:59;10.30;;;9.30;;
10465;SDS011;5280;42.600;23.556;2023-05-07T06:41:26;10.53;;;8.63;;
10465;SDS011;5280;42.600;23.556;2023-05-07T06:43:53;9.37;;;8.47;;
10465;SDS011;5280;42.600;23.556;2023-05-07T06:46:20;11.67;;;8.80;;
10465;SDS011;5280;42.600;23.556;2023-05-07T06:48:46;9.73;;;8.83;;
10465;SDS011;5280;42.600;23.556;2023-05-07T06:51:15;11.27;;;8.27;;
10465;SDS011;5280;42.600;23.556;2023-05-07T06:53:42;9.20;;;7.90;;
10465;SDS011;5280;42.600;23.556;2023-05-07T06:56:08;8.77;;;7.97;;
10465;SDS011;5280;42.600;23.556;2023-05-07T06:58:35;11.57;;;8.73;;
10465;SDS011;5280;42.600;23.556;2023-05-07T07:01:06;8.90;;;8.00;;
10465;SDS011;5280;42.600;23.556;2023-05-07T07:03:35;8.77;;;7.80;;
10465;SDS011;5280;42.600;23.556;2023-05-07T07:06:01;9.13;;;8.33;;
10465;SDS011;5280;42.600;23.556;2023-05-07T07:08:30;9.10;;;8.30;;
10465;SDS011;5280;42.600;23.556;2023-05-07T07:10:57;8.60;;;7.80;;
10465;SDS011;5280;42.600;23.556;2023-05-07T07:13:23;9.40;;;8.50;;
10465;SDS011;5280;42.600;23.556;2023-05-07T07:15:51;9.77;;;8.77;;
10465;SDS011;5280;42.600;23.556;2023-05-07T07:18:17;9.17;;;8.37;;
10465;SDS011;5280;42.600;23.556;2023-05-07T07:20:45;9.17;;;8.37;;
10465;SDS011;5280;42.600;23.556;2023-05-07T07:23:12;8.57;;;7.93;;
10465;SDS011;5280;42.600;23.556;2023-05-07T07:25:40;9.07;;;8.17;;
10465;SDS011;5280;42.600;23.556;2023-05-07T07:28:07;8.70;;;7.90;;
10465;SDS011;5280;42.600;23.556;2023-05-07T07:30:34;9.43;;;8.40;;
10465;SDS011;5280;42.600;23.556;2023-05-07T07:33:00;9.43;;;8.53;;
10465;SDS011;5280;42.600;23.556;2023-05-07T07:35:28;9.40;;;8.50;;
10465;SDS011;5280;42.600;23.556;2023-05-07T07:37:55;8.93;;;8.03;;
10465;SDS011;5280;42.600;23.556;2023-05-07T07:40:22;9.07;;;8.27;;
10465;SDS011;5280;42.600;23.556;2023-05-07T07:42:50;10.13;;;8.07;;
10465;SDS011;5280;42.600;23.556;2023-05-07T07:45:17;9.77;;;8.80;;
10465;SDS011;5280;42.600;23.556;2023-05-07T07:47:44;9.23;;;8.40;;
10465;SDS011;5280;42.600;23.556;2023-05-07T07:50:11;9.17;;;8.37;;
10465;SDS011;5280;42.600;23.556;2023-05-07T07:52:38;9.97;;;8.07;;
10465;SDS011;5280;42.600;23.556;2023-05-07T07:55:06;9.27;;;8.37;;
10465;SDS011;5280;42.600;23.556;2023-05-07T07:57:33;8.93;;;8.00;;
10465;SDS011;5280;42.600;23.556;2023-05-07T08:00:02;9.40;;;7.60;;
10465;SDS011;5280;42.600;23.556;2023-05-07T08:02:31;8.70;;;7.80;;
10465;SDS011;5280;42.600;23.556;2023-05-07T08:04:58;8.30;;;7.50;;
10465;SDS011;5280;42.600;23.556;2023-05-07T08:07:25;8.33;;;7.63;;
10465;SDS011;5280;42.600;23.556;2023-05-07T08:09:51;7.73;;;7.03;;
10465;SDS011;5280;42.600;23.556;2023-05-07T08:12:18;8.77;;;7.50;;
10465;SDS011;5280;42.600;23.556;2023-05-07T08:14:45;8.37;;;7.33;;
10465;SDS011;5280;42.600;23.556;2023-05-07T08:17:14;8.23;;;7.53;;
10465;SDS011;5280;42.600;23.556;2023-05-07T08:19:41;7.87;;;7.07;;
10465;SDS011;5280;42.600;23.556;2023-05-07T08:22:08;7.83;;;7.13;;
10465;SDS011;5280;42.600;23.556;2023-05-07T08:24:35;9.00;;;7.83;;
10465;SDS011;5280;42.600;23.556;2023-05-07T08:27:02;7.73;;;7.10;;
10465;SDS011;5280;42.600;23.556;2023-05-07T08:29:29;7.07;;;6.47;;
10465;SDS011;5280;42.600;23.556;2023-05-07T08:31:56;7.97;;;6.60;;
10465;SDS011;5280;42.600;23.556;2023-05-07T08:34:24;8.20;;;7.03;;
10465;SDS011;5280;42.600;23.556;2023-05-07T08:36:51;7.80;;;7.10;;
10465;SDS011;5280;42.600;23.556;2023-05-07T08:39:18;7.90;;;7.00;;
10465;SDS011;5280;42.600;23.556;2023-05-07T08:41:45;6.77;;;6.17;;
10465;SDS011;5280;42.600;23.556;2023-05-07T08:44:14;7.07;;;6.17;;
10465;SDS011;5280;42.600;23.556;2023-05-07T08:46:44;6.20;;;5.60;;
10465;SDS011;5280;42.600;23.556;2023-05-07T08:49:13;6.13;;;5.53;;
10465;SDS011;5280;42.600;23.556;2023-05-07T08:51:42;5.80;;;5.30;;
10465;SDS011;5280;42.600;23.556;2023-05-07T08:54:09;4.97;;;4.50;;
10465;SDS011;5280;42.600;23.556;2023-05-07T08:56:37;5.20;;;4.70;;
10465;SDS011;5280;42.600;23.556;2023-05-07T08:59:05;5.17;;;4.70;;
10465;SDS011;5280;42.600;23.556;2023-05-07T09:01:31;5.50;;;5.00;;
10465;SDS011;5280;42.600;23.556;2023-05-07T09:04:00;5.10;;;4.60;;
10465;SDS011;5280;42.600;23.556;2023-05-07T09:06:28;5.33;;;4.93;;
10465;SDS011;5280;42.600;23.556;2023-05-07T09:08:56;5.90;;;5.37;;
10465;SDS011;5280;42.600;23.556;2023-05-07T09:11:26;4.83;;;4.33;;
10465;SDS011;5280;42.600;23.556;2023-05-07T09:13:53;6.37;;;5.20;;
10465;SDS011;5280;42.600;23.556;2023-05-07T09:16:23;8.73;;;4.43;;
10465;SDS011;5280;42.600;23.556;2023-05-07T09:18:50;5.20;;;3.50;;
10465;SDS011;5280;42.600;23.556;2023-05-07T09:21:18;4.03;;;3.73;;
10465;SDS011;5280;42.600;23.556;2023-05-07T09:23:47;4.53;;;4.13;;
10465;SDS011;5280;42.600;23.556;2023-05-07T09:26:15;3.20;;;3.00;;
10465;SDS011;5280;42.600;23.556;2023-05-07T09:28:42;3.80;;;3.50;;
10465;SDS011;5280;42.600;23.556;2023-05-07T09:31:09;4.07;;;3.30;;
10465;SDS011;5280;42.600;23.556;2023-05-07T09:33:37;3.33;;;3.03;;
10465;SDS011;5280;42.600;23.556;2023-05-07T09:36:04;4.50;;;3.30;;
10465;SDS011;5280;42.600;23.556;2023-05-07T09:38:32;3.70;;;3.40;;
10465;SDS011;5280;42.600;23.556;2023-05-07T09:41:03;3.40;;;3.07;;
10465;SDS011;5280;42.600;23.556;2023-05-07T09:43:35;2.50;;;2.30;;
10465;SDS011;5280;42.600;23.556;2023-05-07T09:46:06;2.80;;;2.60;;
10465;SDS011;5280;42.600;23.556;2023-05-07T09:48:39;2.80;;;2.50;;
10465;SDS011;5280;42.600;23.556;2023-05-07T09:51:18;3.60;;;3.07;;
10465;SDS011;5280;42.600;23.556;2023-05-07T09:53:52;3.17;;;2.97;;
10465;SDS011;5280;42.600;23.556;2023-05-07T09:56:19;4.53;;;2.97;;
10465;SDS011;5280;42.600;23.556;2023-05-07T09:58:48;3.13;;;2.90;;
10465;SDS011;5280;42.600;23.556;2023-05-07T10:01:17;3.87;;;2.87;;
10465;SDS011;5280;42.600;23.556;2023-05-07T10:03:47;2.80;;;2.60;;
10465;SDS011;5280;42.600;23.556;2023-05-07T10:06:16;2.57;;;2.47;;
10465;SDS011;5280;42.600;23.556;2023-05-07T10:08:44;2.73;;;2.43;;
10465;SDS011;5280;42.600;23.556;2023-05-07T10:11:11;2.57;;;2.37;;
10465;SDS011;5280;42.600;23.556;2023-05-07T10:13:40;2.87;;;2.67;;
10465;SDS011;5280;42.600;23.556;2023-05-07T10:16:09;3.00;;;2.73;;
10465;SDS011;5280;42.600;23.556;2023-05-07T10:18:35;4.70;;;3.00;;
10465;SDS011;5280;42.600;23.556;2023-05-07T10:21:06;3.75;;;3.42;;
10465;SDS011;5280;42.600;23.556;2023-05-07T10:23:35;3.53;;;3.13;;
10465;SDS011;5280;42.600;23.556;2023-05-07T10:26:03;3.07;;;2.87;;
10465;SDS011;5280;42.600;23.556;2023-05-07T10:28:32;2.70;;;2.50;;
10465;SDS011;5280;42.600;23.556;2023-05-07T10:31:07;4.53;;;3.10;;
10465;SDS011;5280;42.600;23.556;2023-05-07T10:33:41;3.53;;;2.63;;
10465;SDS011;5280;42.600;23.556;2023-05-07T10:36:11;2.73;;;2.53;;
10465;SDS011;5280;42.600;23.556;2023-05-07T10:38:38;2.23;;;2.10;;
10465;SDS011;5280;42.600;23.556;2023-05-07T10:41:05;2.37;;;2.17;;
10465;SDS011;5280;42.600;23.556;2023-05-07T10:43:39;2.50;;;2.40;;
10465;SDS011;5280;42.600;23.556;2023-05-07T10:46:15;3.43;;;2.87;;
10465;SDS011;5280;42.600;23.556;2023-05-07T10:51:37;2.80;;;2.47;;
10465;SDS011;5280;42.600;23.556;2023-05-07T10:54:18;2.92;;;2.65;;
10465;SDS011;5280;42.600;23.556;2023-05-07T10:56:45;2.83;;;2.53;;
10465;SDS011;5280;42.600;23.556;2023-05-07T10:59:34;2.57;;;2.40;;
10465;SDS011;5280;42.600;23.556;2023-05-07T11:02:09;2.83;;;2.40;;
10465;SDS011;5280;42.600;23.556;2023-05-07T11:04:39;4.27;;;2.43;;
10465;SDS011;5280;42.600;23.556;2023-05-07T11:09:57;2.97;;;2.78;;
10465;SDS011;5280;42.600;23.556;2023-05-07T11:12:48;2.90;;;2.70;;
10465;SDS011;5280;42.600;23.556;2023-05-07T11:18:20;2.90;;;2.60;;
10465;SDS011;5280;42.600;23.556;2023-05-07T11:20:47;5.20;;;2.43;;
10465;SDS011;5280;42.600;23.556;2023-05-07T11:26:22;2.50;;;2.40;;
10465;SDS011;5280;42.600;23.556;2023-05-07T11:28:50;3.27;;;2.60;;
10465;SDS011;5280;42.600;23.556;2023-05-07T11:31:20;14.50;;;10.43;;
10465;SDS011;5280;42.600;23.556;2023-05-07T11:33:50;7.53;;;6.27;;
10465;SDS011;5280;42.600;23.556;2023-05-07T11:36:17;4.47;;;2.60;;
10465;SDS011;5280;42.600;23.556;2023-05-07T11:38:46;2.90;;;2.70;;
10465;SDS011;5280;42.600;23.556;2023-05-07T11:41:13;3.80;;;3.40;;
10465;SDS011;5280;42.600;23.556;2023-05-07T11:46:30;9.83;;;8.13;;
10465;SDS011;5280;42.600;23.556;2023-05-07T11:49:00;3.30;;;2.80;;
10465;SDS011;5280;42.600;23.556;2023-05-07T11:51:27;7.77;;;5.37;;
10465;SDS011;5280;42.600;23.556;2023-05-07T11:53:53;20.03;;;15.00;;
10465;SDS011;5280;42.600;23.556;2023-05-07T11:56:20;5.10;;;4.03;;
10465;SDS011;5280;42.600;23.556;2023-05-07T11:58:47;3.00;;;2.80;;
10465;SDS011;5280;42.600;23.556;2023-05-07T12:01:17;2.97;;;2.77;;
10465;SDS011;5280;42.600;23.556;2023-05-07T12:03:44;4.43;;;3.83;;
10465;SDS011;5280;42.600;23.556;2023-05-07T12:06:15;2.92;;;2.53;;
10465;SDS011;5280;42.600;23.556;2023-05-07T12:08:43;2.87;;;2.67;;
10465;SDS011;5280;42.600;23.556;2023-05-07T12:11:13;2.90;;;2.70;;
10465;SDS011;5280;42.600;23.556;2023-05-07T12:13:42;3.10;;;2.70;;
10465;SDS011;5280;42.600;23.556;2023-05-07T12:16:09;3.10;;;2.90;;
10465;SDS011;5280;42.600;23.556;2023-05-07T12:18:36;4.47;;;3.10;;
10465;SDS011;5280;42.600;23.556;2023-05-07T12:21:04;3.33;;;2.77;;
10465;SDS011;5280;42.600;23.556;2023-05-07T12:23:34;4.57;;;3.57;;
10465;SDS011;5280;42.600;23.556;2023-05-07T12:26:02;4.47;;;3.20;;
10465;SDS011;5280;42.600;23.556;2023-05-07T12:28:29;3.77;;;3.07;;
10465;SDS011;5280;42.600;23.556;2023-05-07T12:30:56;3.83;;;2.87;;
10465;SDS011;5280;42.600;23.556;2023-05-07T12:33:24;3.67;;;3.30;;
10465;SDS011;5280;42.600;23.556;2023-05-07T12:35:53;3.58;;;3.28;;
10465;SDS011;5280;42.600;23.556;2023-05-07T12:38:21;3.38;;;3.17;;
10465;SDS011;5280;42.600;23.556;2023-05-07T12:40:50;3.20;;;3.00;;
10465;SDS011;5280;42.600;23.556;2023-05-07T12:43:20;4.93;;;3.47;;
10465;SDS011;5280;42.600;23.556;2023-05-07T12:45:50;4.05;;;3.65;;
10465;SDS011;5280;42.600;23.556;2023-05-07T12:48:19;4.03;;;3.63;;
10465;SDS011;5280;42.600;23.556;2023-05-07T12:50:48;4.57;;;3.65;;
10465;SDS011;5280;42.600;23.556;2023-05-07T12:53:16;4.70;;;3.50;;
10465;SDS011;5280;42.600;23.556;2023-05-07T12:55:44;3.95;;;3.50;;
10465;SDS011;5280;42.600;23.556;2023-05-07T12:58:16;4.70;;;3.75;;
10465;SDS011;5280;42.600;23.556;2023-05-07T13:00:47;4.30;;;3.53;;
10465;SDS011;5280;42.600;23.556;2023-05-07T13:03:22;4.05;;;3.65;;
10465;SDS011;5280;42.600;23.556;2023-05-07T13:05:50;6.97;;;4.32;;
10465;SDS011;5280;42.600;23.556;2023-05-07T13:08:24;5.22;;;3.40;;
10465;SDS011;5280;42.600;23.556;2023-05-07T13:10:52;3.97;;;3.67;;
10465;SDS011;5280;42.600;23.556;2023-05-07T13:13:20;4.00;;;3.57;;
10465;SDS011;5280;42.600;23.556;2023-05-07T13:15:47;3.43;;;3.20;;
10465;SDS011;5280;42.600;23.556;2023-05-07T13:18:14;3.63;;;3.33;;
10465;SDS011;5280;42.600;23.556;2023-05-07T13:20:41;3.57;;;3.13;;
10465;SDS011;5280;42.600;23.556;2023-05-07T13:23:08;5.80;;;3.90;;
10465;SDS011;5280;42.600;23.556;2023-05-07T13:25:35;3.45;;;3.25;;
10465;SDS011;5280;42.600;23.556;2023-05-07T13:28:01;3.83;;;3.53;;
10465;SDS011;5280;42.600;23.556;2023-05-07T13:30:31;4.63;;;3.75;;
10465;SDS011;5280;42.600;23.556;2023-05-07T13:32:58;4.00;;;3.70;;
10465;SDS011;5280;42.600;23.556;2023-05-07T13:35:25;4.43;;;3.70;;
10465;SDS011;5280;42.600;23.556;2023-05-07T13:37:52;4.15;;;3.85;;
10465;SDS011;5280;42.600;23.556;2023-05-07T13:40:20;3.97;;;3.67;;
10465;SDS011;5280;42.600;23.556;2023-05-07T13:42:47;3.78;;;3.47;;
10465;SDS011;5280;42.600;23.556;2023-05-07T13:45:15;5.72;;;5.18;;
10465;SDS011;5280;42.600;23.556;2023-05-07T13:47:44;4.88;;;3.67;;
10465;SDS011;5280;42.600;23.556;2023-05-07T13:50:11;4.78;;;4.38;;
10465;SDS011;5280;42.600;23.556;2023-05-07T13:52:40;4.50;;;4.13;;
10465;SDS011;5280;42.600;23.556;2023-05-07T13:55:10;3.90;;;3.50;;
10465;SDS011;5280;42.600;23.556;2023-05-07T13:57:37;3.95;;;3.70;;
10465;SDS011;5280;42.600;23.556;2023-05-07T14:00:05;4.05;;;3.75;;
10465;SDS011;5280;42.600;23.556;2023-05-07T14:02:33;4.17;;;3.77;;
10465;SDS011;5280;42.600;23.556;2023-05-07T14:05:01;4.05;;;3.67;;
10465;SDS011;5280;42.600;23.556;2023-05-07T14:07:28;3.60;;;3.30;;
10465;SDS011;5280;42.600;23.556;2023-05-07T14:09:55;3.90;;;3.60;;
10465;SDS011;5280;42.600;23.556;2023-05-07T14:12:23;3.30;;;3.10;;
10465;SDS011;5280;42.600;23.556;2023-05-07T14:14:50;5.82;;;3.55;;
10465;SDS011;5280;42.600;23.556;2023-05-07T14:17:16;3.67;;;3.30;;
10465;SDS011;5280;42.600;23.556;2023-05-07T14:19:44;3.60;;;3.28;;
10465;SDS011;5280;42.600;23.556;2023-05-07T14:22:12;3.33;;;3.13;;
10465;SDS011;5280;42.600;23.556;2023-05-07T14:24:39;3.70;;;3.40;;
10465;SDS011;5280;42.600;23.556;2023-05-07T14:27:07;3.83;;;3.53;;
10465;SDS011;5280;42.600;23.556;2023-05-07T14:29:34;3.30;;;3.05;;
10465;SDS011;5280;42.600;23.556;2023-05-07T14:32:01;6.45;;;3.80;;
10465;SDS011;5280;42.600;23.556;2023-05-07T14:34:29;4.30;;;3.70;;
10465;SDS011;5280;42.600;23.556;2023-05-07T14:36:59;3.63;;;3.28;;
10465;SDS011;5280;42.600;23.556;2023-05-07T14:39:28;4.00;;;3.70;;
10465;SDS011;5280;42.600;23.556;2023-05-07T14:41:55;6.93;;;4.55;;
10465;SDS011;5280;42.600;23.556;2023-05-07T14:44:23;11.95;;;7.60;;
10465;SDS011;5280;42.600;23.556;2023-05-07T14:46:51;4.93;;;3.95;;
10465;SDS011;5280;42.600;23.556;2023-05-07T14:49:18;4.03;;;3.72;;
10465;SDS011;5280;42.600;23.556;2023-05-07T14:51:45;3.60;;;3.40;;
10465;SDS011;5280;42.600;23.556;2023-05-07T14:54:15;4.32;;;3.30;;
10465;SDS011;5280;42.600;23.556;2023-05-07T14:56:44;4.40;;;3.50;;
10465;SDS011;5280;42.600;23.556;2023-05-07T14:59:11;4.13;;;3.80;;